createdAt,value
2017-05-16T00:00:31.675Z,101977.10
2017-05-16T00:03:02.536Z,101976.83
2017-05-16T00:05:33.595Z,101976.84
2017-05-16T00:08:04.419Z,101971.61
2017-05-16T00:10:35.245Z,101973.78
2017-05-16T00:13:06.006Z,101975.64
2017-05-16T00:15:36.841Z,101977.70
2017-05-16T00:18:07.597Z,101978.64
2017-05-16T00:20:38.423Z,101974.53
2017-05-16T00:23:09.192Z,101970.19
2017-05-16T00:25:39.978Z,101967.08
2017-05-16T00:28:12.111Z,101961.81
2017-05-16T00:30:43.203Z,101967.12
2017-05-16T00:33:14.003Z,101965.31
2017-05-16T00:35:44.886Z,101965.17
2017-05-16T00:38:15.662Z,101958.16
2017-05-16T00:40:47.321Z,101959.35
2017-05-16T00:43:18.113Z,101954.12
2017-05-16T00:45:48.936Z,101956.00
2017-05-16T00:48:19.778Z,101962.09
2017-05-16T00:50:50.656Z,101959.52
2017-05-16T00:53:22.344Z,101959.59
2017-05-16T00:55:53.148Z,101957.42
2017-05-16T00:58:23.950Z,101964.88
2017-05-16T01:00:55.056Z,101961.11
2017-05-16T01:03:25.847Z,101962.01
2017-05-16T01:05:56.740Z,101955.00
2017-05-16T01:08:27.562Z,101957.19
2017-05-16T01:10:58.411Z,101954.10
2017-05-16T01:13:29.955Z,101953.25
2017-05-16T01:16:00.746Z,101950.70
2017-05-16T01:18:31.508Z,101943.78
2017-05-16T01:21:03.036Z,101945.83
2017-05-16T01:23:33.807Z,101943.62
2017-05-16T01:26:04.650Z,101940.79
2017-05-16T01:28:37.107Z,101942.80
2017-05-16T01:31:07.923Z,101940.88
2017-05-16T01:33:38.682Z,101946.20
2017-05-16T01:36:09.591Z,101937.41
2017-05-16T01:38:40.012Z,101945.41
2017-05-16T01:41:11.622Z,101950.78
2017-05-16T01:43:42.044Z,101948.28
2017-05-16T01:46:12.681Z,101941.98
2017-05-16T01:48:43.550Z,101949.62
2017-05-16T01:51:14.406Z,101946.78
2017-05-16T01:53:45.229Z,101945.59
2017-05-16T01:56:16.082Z,101946.77
2017-05-16T01:58:47.491Z,101949.83
2017-05-16T02:01:18.328Z,101953.38
2017-05-16T02:03:49.116Z,101944.15
2017-05-16T02:06:19.925Z,101947.84
2017-05-16T02:08:50.727Z,101945.75
2017-05-16T02:11:21.554Z,101943.33
2017-05-16T02:13:52.331Z,101943.77
2017-05-16T02:16:23.158Z,101954.12
2017-05-16T02:18:53.981Z,101948.52
2017-05-16T02:21:24.831Z,101950.09
2017-05-16T02:23:55.626Z,101950.55
2017-05-16T02:26:26.465Z,101948.80
2017-05-16T02:28:57.337Z,101943.32
2017-05-16T02:31:27.874Z,101944.20
2017-05-16T02:33:58.671Z,101942.91
2017-05-16T02:36:29.671Z,101936.49
2017-05-16T02:39:00.443Z,101935.11
2017-05-16T02:41:31.075Z,101934.69
2017-05-16T02:44:01.852Z,101937.03
2017-05-16T02:46:32.671Z,101932.64
2017-05-16T02:49:04.038Z,101933.32
2017-05-16T02:51:34.873Z,101930.44
2017-05-16T02:54:05.662Z,101933.62
2017-05-16T02:56:36.527Z,101931.48
2017-05-16T02:59:07.332Z,101931.39
2017-05-16T03:01:38.149Z,101930.69
2017-05-16T03:04:08.962Z,101929.86
2017-05-16T03:06:39.790Z,101930.69
2017-05-16T03:09:10.570Z,101932.93
2017-05-16T03:11:42.324Z,101930.17
2017-05-16T03:14:13.191Z,101937.23
2017-05-16T03:16:44.067Z,101935.64
2017-05-16T03:19:14.861Z,101926.45
2017-05-16T03:21:45.679Z,101933.63
2017-05-16T03:24:16.447Z,101933.29
2017-05-16T03:26:47.275Z,101937.59
2017-05-16T03:29:18.108Z,101934.50
2017-05-16T03:31:48.955Z,101938.81
2017-05-16T03:34:19.734Z,101931.31
2017-05-16T03:36:50.578Z,101933.45
2017-05-16T03:39:23.013Z,101935.46
2017-05-16T03:41:53.859Z,101934.63
2017-05-16T03:44:25.882Z,101940.23
2017-05-16T03:46:56.728Z,101934.80
2017-05-16T03:49:27.516Z,101936.64
2017-05-16T03:51:58.369Z,101944.03
2017-05-16T03:54:29.170Z,101941.47
2017-05-16T03:57:00.031Z,101938.15
2017-05-16T03:59:31.730Z,101934.58
2017-05-16T04:02:04.312Z,101929.60
2017-05-16T04:04:35.481Z,101934.52
2017-05-16T04:07:09.320Z,101937.94
2017-05-16T04:09:41.897Z,101930.83
2017-05-16T04:12:14.051Z,101938.48
2017-05-16T04:14:44.887Z,101940.84
2017-05-16T04:17:16.917Z,101941.17
2017-05-16T04:19:48.037Z,101940.59
2017-05-16T04:22:19.782Z,101941.51
2017-05-16T04:24:51.059Z,101948.45
2017-05-16T04:27:21.874Z,101949.65
2017-05-16T04:29:53.533Z,101948.33
2017-05-16T04:32:24.473Z,101942.87
2017-05-16T04:34:55.262Z,101950.29
2017-05-16T04:37:26.082Z,101947.06
2017-05-16T04:39:58.068Z,101948.65
2017-05-16T04:42:30.983Z,101950.93
2017-05-16T04:45:03.365Z,101953.16
2017-05-16T04:47:36.853Z,101948.13
2017-05-16T04:50:10.227Z,101951.74
2017-05-16T04:52:43.986Z,101952.63
2017-05-16T04:55:16.665Z,101950.88
2017-05-16T04:57:49.371Z,101952.97
2017-05-16T05:00:22.579Z,101953.44
2017-05-16T05:02:55.319Z,101952.48
2017-05-16T05:05:27.941Z,101954.63
2017-05-16T05:07:58.966Z,101952.77
2017-05-16T05:10:29.767Z,101954.30
2017-05-16T05:13:00.669Z,101956.16
2017-05-16T05:15:31.510Z,101957.30
2017-05-16T05:18:02.316Z,101960.23
2017-05-16T05:20:33.109Z,101958.16
2017-05-16T05:23:03.926Z,101955.08
2017-05-16T05:25:34.701Z,101957.94
2017-05-16T05:28:05.603Z,101956.85
2017-05-16T05:30:37.276Z,101956.66
2017-05-16T05:33:08.123Z,101954.56
2017-05-16T05:35:38.896Z,101968.70
2017-05-16T05:38:09.734Z,101963.23
2017-05-16T05:40:40.522Z,101965.89
2017-05-16T05:43:12.312Z,101966.80
2017-05-16T05:45:43.170Z,101960.05
2017-05-16T05:48:15.026Z,101961.33
2017-05-16T05:50:47.528Z,101957.62
2017-05-16T05:53:19.928Z,101957.30
2017-05-16T05:55:52.157Z,101960.48
2017-05-16T05:58:23.926Z,101964.86
2017-05-16T06:00:55.947Z,101964.17
2017-05-16T06:03:28.075Z,101962.89
2017-05-16T06:05:59.354Z,101965.72
2017-05-16T06:08:30.198Z,101965.07
2017-05-16T06:11:00.982Z,101968.02
2017-05-16T06:13:33.088Z,101966.25
2017-05-16T06:16:03.884Z,101965.06
2017-05-16T06:18:34.696Z,101964.98
2017-05-16T06:21:05.466Z,101969.99
2017-05-16T06:23:36.308Z,101970.84
2017-05-16T06:26:07.092Z,101975.00
2017-05-16T06:28:37.987Z,101971.66
2017-05-16T06:31:08.801Z,101977.67
2017-05-16T06:33:39.600Z,101980.77
2017-05-16T06:36:10.367Z,101978.12
2017-05-16T06:38:41.178Z,101973.63
2017-05-16T06:41:11.880Z,101976.44
2017-05-16T06:43:42.794Z,101973.48
2017-05-16T06:46:13.743Z,101977.19
2017-05-16T06:48:45.073Z,101971.63
2017-05-16T06:51:16.518Z,101979.59
2017-05-16T06:53:47.363Z,101974.98
2017-05-16T06:56:18.154Z,101977.56
2017-05-16T06:58:49.003Z,101981.67
2017-05-16T07:01:19.778Z,101981.38
2017-05-16T07:03:50.592Z,101982.21
2017-05-16T07:06:21.359Z,101982.56
2017-05-16T07:08:52.188Z,101978.72
2017-05-16T07:11:22.975Z,101979.44
2017-05-16T07:13:53.811Z,101977.53
2017-05-16T07:16:24.627Z,101979.48
2017-05-16T07:18:55.435Z,101970.13
2017-05-16T07:21:26.215Z,101970.55
2017-05-16T07:23:57.079Z,101969.96
2017-05-16T07:26:27.839Z,101976.60
2017-05-16T07:28:58.672Z,101970.61
2017-05-16T07:31:29.478Z,101964.83
2017-05-16T07:34:00.382Z,101969.00
2017-05-16T07:36:31.148Z,101968.81
2017-05-16T07:39:02.009Z,101971.44
2017-05-16T07:41:32.794Z,101963.03
2017-05-16T07:44:03.611Z,101955.95
2017-05-16T07:46:34.390Z,101957.11
2017-05-16T07:49:05.234Z,101961.27
2017-05-16T07:51:36.010Z,101949.78
2017-05-16T07:54:06.801Z,101958.20
2017-05-16T07:56:37.622Z,101954.43
2017-05-16T07:59:08.493Z,101955.41
2017-05-16T08:01:39.257Z,101951.22
2017-05-16T08:04:10.093Z,101952.02
2017-05-16T08:06:40.884Z,101942.35
2017-05-16T08:09:11.710Z,101948.27
2017-05-16T08:11:42.663Z,101946.59
2017-05-16T08:14:13.515Z,101945.55
2017-05-16T08:16:44.350Z,101945.97
2017-05-16T08:19:15.179Z,101945.54
2017-05-16T08:21:46.003Z,101945.63
2017-05-16T08:24:16.903Z,101944.45
2017-05-16T08:26:47.723Z,101943.58
2017-05-16T08:29:18.527Z,101938.54
2017-05-16T08:31:49.338Z,101934.38
2017-05-16T08:34:20.145Z,101932.87
2017-05-16T08:36:50.938Z,101931.52
2017-05-16T08:39:21.792Z,101929.20
2017-05-16T08:41:52.571Z,101929.20
2017-05-16T08:44:23.388Z,101927.78
2017-05-16T08:46:54.158Z,101928.17
2017-05-16T08:49:24.994Z,101934.10
2017-05-16T08:51:55.775Z,101925.02
2017-05-16T08:54:26.626Z,101924.64
2017-05-16T08:56:57.394Z,101917.53
2017-05-16T08:59:28.249Z,101916.62
2017-05-16T09:01:59.027Z,101924.27
2017-05-16T09:04:29.861Z,101921.68
2017-05-16T09:07:00.639Z,101925.63
2017-05-16T09:12:11.498Z,101924.67
2017-05-16T09:14:42.296Z,101926.48
2017-05-16T09:17:13.190Z,101932.96
2017-05-16T09:19:44.029Z,101927.28
2017-05-16T09:22:14.860Z,101927.20
2017-05-16T09:24:45.806Z,101932.73
2017-05-16T09:27:16.574Z,101923.45
2017-05-16T09:29:47.387Z,101928.70
2017-05-16T09:32:18.267Z,101930.12
2017-05-16T09:34:49.196Z,101927.47
2017-05-16T09:37:19.955Z,101920.66
2017-05-16T09:39:50.756Z,101927.23
2017-05-16T09:42:21.523Z,101921.66
2017-05-16T09:44:52.377Z,101924.98
2017-05-16T09:47:23.152Z,101924.89
2017-05-16T09:49:54.000Z,101926.01
2017-05-16T09:52:24.803Z,101917.30
2017-05-16T09:54:55.626Z,101926.25
2017-05-16T09:57:26.390Z,101924.87
2017-05-16T09:59:57.182Z,101922.14
2017-05-16T10:02:28.018Z,101920.48
2017-05-16T10:04:59.038Z,101923.15
2017-05-16T10:07:29.838Z,101916.34
2017-05-16T10:10:00.736Z,101917.67
2017-05-16T10:12:31.492Z,101909.78
2017-05-16T10:15:02.307Z,101906.34
2017-05-16T10:17:33.082Z,101901.18
2017-05-16T10:20:03.879Z,101895.58
2017-05-16T10:22:34.659Z,101895.14
2017-05-16T10:25:05.483Z,101899.95
2017-05-16T10:27:36.254Z,101894.19
2017-05-16T10:30:07.090Z,101894.73
2017-05-16T10:32:37.927Z,101893.50
2017-05-16T10:35:08.723Z,101894.50
2017-05-16T10:37:39.541Z,101887.42
2017-05-16T10:40:10.387Z,101888.55
2017-05-16T10:42:41.147Z,101887.22
2017-05-16T10:45:11.933Z,101886.83
2017-05-16T10:47:42.695Z,101893.31
2017-05-16T10:50:13.613Z,101881.56
2017-05-16T10:52:44.438Z,101885.98
2017-05-16T10:55:15.242Z,101884.37
2017-05-16T10:57:46.041Z,101877.23
2017-05-16T11:00:16.831Z,101872.64
2017-05-16T11:02:47.602Z,101878.20
2017-05-16T11:05:18.422Z,101876.48
2017-05-16T11:07:49.182Z,101876.16
2017-05-16T11:10:20.027Z,101867.23
2017-05-16T11:12:50.797Z,101863.70
2017-05-16T11:15:21.619Z,101865.52
2017-05-16T11:17:52.446Z,101859.92
2017-05-16T11:20:23.310Z,101857.98
2017-05-16T11:22:54.086Z,101856.55
2017-05-16T11:25:24.878Z,101858.62
2017-05-16T11:27:55.653Z,101854.10
2017-05-16T11:30:26.454Z,101850.45
2017-05-16T11:32:57.257Z,101852.77
2017-05-16T11:35:28.116Z,101846.17
2017-05-16T11:37:58.878Z,101846.73
2017-05-16T11:40:29.694Z,101844.84
2017-05-16T11:43:00.471Z,101847.22
2017-05-16T11:45:31.304Z,101840.54
2017-05-16T11:48:02.106Z,101837.27
2017-05-16T11:50:32.942Z,101840.28
2017-05-16T11:53:03.708Z,101838.85
2017-05-16T11:55:34.569Z,101831.27
2017-05-16T11:58:05.320Z,101836.00
2017-05-16T12:00:36.102Z,101843.08
2017-05-16T12:03:06.934Z,101838.72
2017-05-16T12:05:37.789Z,101840.41
2017-05-16T12:08:08.548Z,101829.28
2017-05-16T12:10:39.364Z,101830.95
2017-05-16T12:13:10.167Z,101832.16
2017-05-16T12:15:41.032Z,101824.70
2017-05-16T12:18:11.906Z,101831.94
2017-05-16T12:20:42.714Z,101838.36
2017-05-16T12:23:13.803Z,101825.00
2017-05-16T12:25:44.667Z,101828.76
2017-05-16T12:28:15.434Z,101826.00
2017-05-16T12:30:46.288Z,101824.92
2017-05-16T12:33:17.103Z,101820.79
2017-05-16T12:35:47.962Z,101821.82
2017-05-16T12:38:18.731Z,101820.05
2017-05-16T12:40:49.543Z,101815.48
2017-05-16T12:43:20.346Z,101816.52
2017-05-16T12:45:51.196Z,101806.42
2017-05-16T12:48:21.982Z,101813.20
2017-05-16T12:50:52.809Z,101807.94
2017-05-16T12:53:23.578Z,101812.11
2017-05-16T12:55:54.383Z,101806.47
2017-05-16T12:58:25.146Z,101807.80
2017-05-16T13:00:56.010Z,101805.73
2017-05-16T13:03:26.756Z,101808.45
2017-05-16T13:05:57.594Z,101796.64
2017-05-16T13:08:28.346Z,101790.27
2017-05-16T13:10:59.154Z,101796.77
2017-05-16T13:13:29.906Z,101793.06
2017-05-16T13:16:00.749Z,101793.23
2017-05-16T13:18:31.519Z,101793.80
2017-05-16T13:21:02.325Z,101789.30
2017-05-16T13:23:33.217Z,101788.95
2017-05-16T13:26:04.206Z,101785.82
2017-05-16T13:28:34.965Z,101783.10
2017-05-16T13:31:05.756Z,101785.99
2017-05-16T13:33:36.553Z,101781.59
2017-05-16T13:36:07.381Z,101777.41
2017-05-16T13:38:38.212Z,101780.59
2017-05-16T13:41:09.153Z,101778.09
2017-05-16T13:43:39.915Z,101773.61
2017-05-16T13:46:10.716Z,101772.79
2017-05-16T13:48:41.474Z,101767.82
2017-05-16T13:51:12.288Z,101763.80
2017-05-16T13:53:43.133Z,101766.33
2017-05-16T13:56:14.117Z,101765.67
2017-05-16T13:58:44.875Z,101764.50
2017-05-16T14:01:15.770Z,101763.77
2017-05-16T14:03:46.641Z,101755.64
2017-05-16T14:06:17.445Z,101761.95
2017-05-16T14:08:48.232Z,101763.29
2017-05-16T14:11:19.062Z,101753.88
2017-05-16T14:13:49.822Z,101766.09
2017-05-16T14:16:20.657Z,101760.04
2017-05-16T14:18:51.417Z,101757.87
2017-05-16T14:21:22.211Z,101750.86
2017-05-16T14:23:53.704Z,101748.07
2017-05-16T14:26:24.578Z,101745.03
2017-05-16T14:28:55.414Z,101744.58
2017-05-16T14:31:26.230Z,101743.09
2017-05-16T14:33:57.035Z,101743.80
2017-05-16T14:36:27.849Z,101742.73
2017-05-16T14:38:58.597Z,101744.11
2017-05-16T14:41:29.430Z,101735.33
2017-05-16T14:44:00.202Z,101737.62
2017-05-16T14:46:31.050Z,101732.05
2017-05-16T14:49:01.821Z,101729.55
2017-05-16T14:51:32.626Z,101726.83
2017-05-16T14:54:03.454Z,101722.09
2017-05-16T14:56:34.225Z,101722.80
2017-05-16T14:59:04.967Z,101712.86
2017-05-16T15:01:35.797Z,101725.73
2017-05-16T15:04:06.593Z,101713.13
2017-05-16T15:06:37.381Z,101714.47
2017-05-16T15:09:08.159Z,101713.97
2017-05-16T15:11:39.873Z,101713.59
2017-05-16T15:14:10.689Z,101711.41
2017-05-16T15:16:41.492Z,101705.60
2017-05-16T15:19:12.246Z,101711.77
2017-05-16T15:21:43.037Z,101712.92
2017-05-16T15:24:14.094Z,101715.27
2017-05-16T15:26:44.939Z,101712.03
2017-05-16T15:29:15.716Z,101711.70
2017-05-16T15:31:46.545Z,101714.05
2017-05-16T15:34:17.381Z,101709.15
2017-05-16T15:36:48.175Z,101707.27
2017-05-16T15:39:18.951Z,101708.09
2017-05-16T15:41:49.803Z,101705.38
2017-05-16T15:44:20.578Z,101699.76
2017-05-16T15:46:51.391Z,101697.63
2017-05-16T15:49:22.173Z,101694.47
2017-05-16T15:51:52.990Z,101695.00
2017-05-16T15:54:23.763Z,101688.81
2017-05-16T15:56:54.550Z,101693.95
2017-05-16T15:59:25.314Z,101692.31
2017-05-16T16:01:56.126Z,101693.44
2017-05-16T16:04:26.897Z,101694.98
2017-05-16T16:06:57.729Z,101693.44
2017-05-16T16:09:28.512Z,101689.30
2017-05-16T16:11:59.296Z,101698.05
2017-05-16T16:14:30.070Z,101686.85
2017-05-16T16:17:00.883Z,101687.14
2017-05-16T16:19:31.666Z,101678.73
2017-05-16T16:22:02.468Z,101682.76
2017-05-16T16:24:33.238Z,101687.72
2017-05-16T16:27:04.040Z,101681.69
2017-05-16T16:29:34.799Z,101680.73
2017-05-16T16:32:05.609Z,101677.85
2017-05-16T16:34:36.404Z,101683.89
2017-05-16T16:37:07.226Z,101680.58
2017-05-16T16:39:38.075Z,101684.42
2017-05-16T16:42:08.875Z,101674.33
2017-05-16T16:44:39.806Z,101676.45
2017-05-16T16:47:10.624Z,101674.20
2017-05-16T16:49:41.375Z,101674.11
2017-05-16T16:52:12.179Z,101676.73
2017-05-16T16:54:42.972Z,101673.41
2017-05-16T16:57:13.999Z,101671.99
2017-05-16T16:59:44.879Z,101670.73
2017-05-16T17:02:15.713Z,101673.77
2017-05-16T17:04:46.486Z,101667.81
2017-05-16T17:07:17.279Z,101671.41
2017-05-16T17:09:48.054Z,101672.59
2017-05-16T17:12:18.917Z,101672.64
2017-05-16T17:14:49.674Z,101679.80
2017-05-16T17:17:20.517Z,101679.81
2017-05-16T17:19:51.301Z,101678.47
2017-05-16T17:22:22.112Z,101678.84
2017-05-16T17:24:52.934Z,101675.70
2017-05-16T17:27:23.768Z,101675.14
2017-05-16T17:29:54.576Z,101682.52
2017-05-16T17:32:25.384Z,101683.59
2017-05-16T17:34:56.354Z,101679.63
2017-05-16T17:37:27.183Z,101681.34
2017-05-16T17:39:58.017Z,101678.89
2017-05-16T17:42:28.859Z,101676.80
2017-05-16T17:44:59.616Z,101679.68
2017-05-16T17:47:30.486Z,101675.58
2017-05-16T17:50:01.291Z,101677.74
2017-05-16T17:52:32.081Z,101677.86
2017-05-16T17:55:02.860Z,101674.33
2017-05-16T17:57:33.825Z,101674.20
2017-05-16T18:00:05.633Z,101681.36
2017-05-16T18:02:38.519Z,101681.57
2017-05-16T18:05:11.264Z,101680.36
2017-05-16T18:07:43.332Z,101693.32
2017-05-16T18:10:14.278Z,101690.86
2017-05-16T18:12:46.211Z,101690.91
2017-05-16T18:15:17.950Z,101687.05
2017-05-16T18:17:48.927Z,101692.38
2017-05-16T18:20:20.340Z,101685.80
2017-05-16T18:22:53.103Z,101688.95
2017-05-16T18:25:25.729Z,101687.77
2017-05-16T18:28:00.196Z,101689.37
2017-05-16T18:30:32.644Z,101684.41
2017-05-16T18:33:03.862Z,101687.95
2017-05-16T18:35:34.789Z,101690.66
2017-05-16T18:38:07.523Z,101690.44
2017-05-16T18:40:40.193Z,101693.97
2017-05-16T18:43:12.614Z,101691.81
2017-05-16T18:45:43.803Z,101698.98
2017-05-16T18:48:15.202Z,101700.11
2017-05-16T18:50:46.149Z,101701.55
2017-05-16T18:53:16.924Z,101699.39
2017-05-16T18:55:47.843Z,101700.75
2017-05-16T18:58:18.630Z,101702.92
2017-05-16T19:00:49.448Z,101704.11
2017-05-16T19:03:20.194Z,101706.62
2017-05-16T19:05:51.001Z,101712.00
2017-05-16T19:08:24.157Z,101717.02
2017-05-16T19:10:57.381Z,101716.27
2017-05-16T19:13:31.913Z,101717.81
2017-05-16T19:16:05.517Z,101719.77
2017-05-16T19:18:38.895Z,101719.16
2017-05-16T19:21:12.078Z,101720.03
2017-05-16T19:23:44.551Z,101719.29
2017-05-16T19:26:18.063Z,101720.43
2017-05-16T19:28:51.984Z,101720.82
2017-05-16T19:31:26.186Z,101724.90
2017-05-16T19:33:58.358Z,101727.30
2017-05-16T19:36:29.780Z,101726.16
2017-05-16T19:39:02.687Z,101728.63
2017-05-16T19:41:36.433Z,101726.63
2017-05-16T19:44:08.007Z,101720.20
2017-05-16T19:46:38.871Z,101719.84
2017-05-16T19:49:09.650Z,101716.08
2017-05-16T19:51:40.477Z,101711.61
2017-05-16T19:54:12.386Z,101716.83
2017-05-16T19:56:46.151Z,101723.53
2017-05-16T19:59:19.703Z,101716.55
2017-05-16T20:01:52.512Z,101718.03
2017-05-16T20:04:25.230Z,101719.56
2017-05-16T20:06:59.378Z,101721.40
2017-05-16T20:09:33.587Z,101714.83
2017-05-16T20:12:08.010Z,101722.78
2017-05-16T20:14:39.605Z,101721.36
2017-05-16T20:17:11.791Z,101723.20
2017-05-16T20:19:46.946Z,101720.30
2017-05-16T20:22:22.014Z,101725.62
2017-05-16T20:24:55.558Z,101715.19
2017-05-16T20:27:29.979Z,101718.05
2017-05-16T20:30:04.139Z,101711.11
2017-05-16T20:32:37.145Z,101708.44
2017-05-16T20:35:11.013Z,101710.20
2017-05-16T20:37:45.741Z,101709.53
2017-05-16T20:40:20.009Z,101717.70
2017-05-16T20:42:55.334Z,101713.36
2017-05-16T20:45:27.561Z,101710.27
2017-05-16T20:47:59.107Z,101715.89
2017-05-16T20:50:30.220Z,101715.54
2017-05-16T20:53:01.018Z,101711.84
2017-05-16T20:55:31.815Z,101716.84
2017-05-16T20:58:03.383Z,101707.49
2017-05-16T21:00:34.142Z,101707.70
2017-05-16T21:03:04.955Z,101713.49
2017-05-16T21:05:35.720Z,101710.88
2017-05-16T21:08:06.531Z,101710.40
2017-05-16T21:10:37.291Z,101712.67
2017-05-16T21:13:08.103Z,101715.09
2017-05-16T21:15:38.951Z,101717.33
2017-05-16T21:18:09.761Z,101714.52
2017-05-16T21:20:41.809Z,101715.74
2017-05-16T21:23:12.716Z,101713.44
2017-05-16T21:25:43.485Z,101713.12
2017-05-16T21:28:14.353Z,101715.14
2017-05-16T21:30:45.162Z,101712.80
2017-05-16T21:33:16.575Z,101713.98
2017-05-16T21:35:47.347Z,101710.23
2017-05-16T21:38:18.207Z,101709.21
2017-05-16T21:40:48.979Z,101710.92
2017-05-16T21:43:19.771Z,101710.16
2017-05-16T21:45:50.605Z,101709.13
2017-05-16T21:48:21.423Z,101707.19
2017-05-16T21:50:52.183Z,101709.96
2017-05-16T21:53:23.759Z,101715.78
2017-05-16T21:55:54.520Z,101711.20
2017-05-16T21:58:25.347Z,101714.45
2017-05-16T22:00:57.059Z,101714.88
2017-05-16T22:03:27.913Z,101714.24
2017-05-16T22:05:58.702Z,101708.95
2017-05-16T22:08:29.571Z,101713.23
2017-05-16T22:11:00.385Z,101709.53
2017-05-16T22:13:31.248Z,101709.86
2017-05-16T22:16:02.031Z,101713.56
2017-05-16T22:18:32.842Z,101717.52
2017-05-16T22:21:03.629Z,101715.33
2017-05-16T22:23:34.488Z,101715.08
2017-05-16T22:26:05.245Z,101713.64
2017-05-16T22:28:36.063Z,101711.34
2017-05-16T22:31:07.113Z,101708.14
2017-05-16T22:33:37.947Z,101710.98
2017-05-16T22:36:08.849Z,101710.55
2017-05-16T22:38:39.727Z,101705.48
2017-05-16T22:41:10.520Z,101705.55
2017-05-16T22:43:41.168Z,101704.25
2017-05-16T22:46:11.985Z,101706.30
2017-05-16T22:48:42.818Z,101703.50
2017-05-16T22:51:13.275Z,101702.53
2017-05-16T22:53:44.143Z,101699.44
2017-05-16T22:56:14.953Z,101700.05
2017-05-16T22:58:45.785Z,101701.55
2017-05-16T23:01:16.628Z,101700.73
2017-05-16T23:03:47.435Z,101704.79
2017-05-16T23:06:18.223Z,101700.16
2017-05-16T23:08:49.068Z,101703.67
2017-05-16T23:11:19.838Z,101698.20
2017-05-16T23:13:50.658Z,101693.21
2017-05-16T23:16:22.980Z,101694.80
2017-05-16T23:18:53.815Z,101693.25
2017-05-16T23:21:24.582Z,101689.44
2017-05-16T23:23:55.408Z,101695.33
2017-05-16T23:26:26.215Z,101691.20
2017-05-16T23:28:57.042Z,101683.72
2017-05-16T23:31:27.843Z,101689.07
2017-05-16T23:33:58.785Z,101688.78
2017-05-16T23:36:29.592Z,101688.17
2017-05-16T23:39:00.483Z,101688.34
2017-05-16T23:41:31.264Z,101682.71
2017-05-16T23:44:02.125Z,101678.19
2017-05-16T23:46:32.923Z,101680.80
2017-05-16T23:49:03.758Z,101676.27
2017-05-16T23:51:34.548Z,101668.79
2017-05-16T23:54:05.383Z,101675.36
2017-05-16T23:56:36.170Z,101675.32
2017-05-16T23:59:07.007Z,101668.57
